sensor_id;sensor_type;location;lat;lon;timestamp;pressure;altitude;pressure_sealevel;temperature;humidity
55994;BME280;67425;52.126;20.638;2023-02-11T00:02:13;57730.25;;;-144.78;85.70
55994;BME280;67425;52.126;20.638;2023-02-11T00:04:38;57709.50;;;-144.78;85.38
55994;BME280;67425;52.126;20.638;2023-02-11T00:07:03;57719.88;;;-144.78;84.53
55994;BME280;67425;52.126;20.638;2023-02-11T00:09:29;57713.63;;;-144.78;84.31
55994;BME280;67425;52.126;20.638;2023-02-11T00:11:54;57724.03;;;-144.78;86.11
55994;BME280;67425;52.126;20.638;2023-02-11T00:14:20;57719.88;;;-144.78;87.11
55994;BME280;67425;52.126;20.638;2023-02-11T00:16:45;57721.94;;;-144.78;87.83
55994;BME280;67425;52.126;20.638;2023-02-11T00:19:10;57736.50;;;-144.78;85.80
55994;BME280;67425;52.126;20.638;2023-02-11T00:21:36;57730.25;;;-144.78;85.65
55994;BME280;67425;52.126;20.638;2023-02-11T00:24:01;57724.03;;;-144.78;87.33
55994;BME280;67425;52.126;20.638;2023-02-11T00:26:29;57746.88;;;-144.78;87.45
55994;BME280;67425;52.126;20.638;2023-02-11T00:28:55;57726.09;;;-144.78;85.65
55994;BME280;67425;52.126;20.638;2023-02-11T00:31:21;57719.88;;;-144.78;83.78
55994;BME280;67425;52.126;20.638;2023-02-11T00:33:47;57719.88;;;-144.78;83.51
55994;BME280;67425;52.126;20.638;2023-02-11T00:36:15;57703.25;;;-144.78;83.42
55994;BME280;67425;52.126;20.638;2023-02-11T00:38:44;57709.50;;;-144.78;83.00
55994;BME280;67425;52.126;20.638;2023-02-11T00:41:11;57709.50;;;-144.78;82.74
55994;BME280;67425;52.126;20.638;2023-02-11T00:43:38;57721.94;;;-144.78;82.48
55994;BME280;67425;52.126;20.638;2023-02-11T00:46:03;57738.56;;;-144.78;82.08
55994;BME280;67425;52.126;20.638;2023-02-11T00:48:29;57726.09;;;-144.78;82.31
55994;BME280;67425;52.126;20.638;2023-02-11T00:50:54;57707.41;;;-144.78;82.46
55994;BME280;67425;52.126;20.638;2023-02-11T00:53:20;57701.19;;;-144.78;82.37
55994;BME280;67425;52.126;20.638;2023-02-11T00:55:45;57726.09;;;-144.78;82.54
55994;BME280;67425;52.126;20.638;2023-02-11T00:58:10;57717.78;;;-144.78;82.98
55994;BME280;67425;52.126;20.638;2023-02-11T01:00:36;57707.41;;;-144.78;82.52
55994;BME280;67425;52.126;20.638;2023-02-11T01:03:01;57730.25;;;-144.78;82.15
55994;BME280;67425;52.126;20.638;2023-02-11T01:05:26;57730.25;;;-144.78;82.26
55994;BME280;67425;52.126;20.638;2023-02-11T01:07:52;57715.72;;;-144.78;82.64
55994;BME280;67425;52.126;20.638;2023-02-11T01:10:17;57694.94;;;-144.78;83.45
55994;BME280;67425;52.126;20.638;2023-02-11T01:12:43;57707.41;;;-144.78;82.90
55994;BME280;67425;52.126;20.638;2023-02-11T01:15:11;57717.78;;;-144.78;82.85
55994;BME280;67425;52.126;20.638;2023-02-11T01:17:37;57694.94;;;-144.78;82.98
55994;BME280;67425;52.126;20.638;2023-02-11T01:20:04;57713.63;;;-144.78;82.48
55994;BME280;67425;52.126;20.638;2023-02-11T01:22:31;57728.19;;;-144.78;82.91
55994;BME280;67425;52.126;20.638;2023-02-11T01:24:58;57730.25;;;-144.78;82.84
55994;BME280;67425;52.126;20.638;2023-02-11T01:27:23;57697.03;;;-144.78;82.78
55994;BME280;67425;52.126;20.638;2023-02-11T01:29:48;57738.56;;;-144.78;83.09
55994;BME280;67425;52.126;20.638;2023-02-11T01:32:14;57738.56;;;-144.78;82.78
55994;BME280;67425;52.126;20.638;2023-02-11T01:34:39;57705.34;;;-144.78;82.34
55994;BME280;67425;52.126;20.638;2023-02-11T01:37:04;57699.09;;;-144.78;81.30
55994;BME280;67425;52.126;20.638;2023-02-11T01:39:32;57697.03;;;-144.78;82.45
55994;BME280;67425;52.126;20.638;2023-02-11T01:41:58;57705.34;;;-144.78;81.43
55994;BME280;67425;52.126;20.638;2023-02-11T01:44:35;57705.34;;;-144.78;82.23
55994;BME280;67425;52.126;20.638;2023-02-11T01:47:01;57734.41;;;-144.78;82.01
55994;BME280;67425;52.126;20.638;2023-02-11T01:49:33;57717.78;;;-144.78;81.95
55994;BME280;67425;52.126;20.638;2023-02-11T01:52:04;57755.19;;;-144.78;82.73
55994;BME280;67425;52.126;20.638;2023-02-11T01:54:37;57694.94;;;-144.78;81.67
55994;BME280;67425;52.126;20.638;2023-02-11T01:57:28;57740.63;;;-144.78;82.47
55994;BME280;67425;52.126;20.638;2023-02-11T02:00:14;57724.03;;;-144.78;82.86
55994;BME280;67425;52.126;20.638;2023-02-11T02:03:05;57738.56;;;-144.78;82.90
55994;BME280;67425;52.126;20.638;2023-02-11T02:10:55;57738.56;;;-144.78;82.46
55994;BME280;67425;52.126;20.638;2023-02-11T02:13:23;57771.78;;;-144.78;82.51
55994;BME280;67425;52.126;20.638;2023-02-11T02:34:50;57690.78;;;-144.78;80.62
55994;BME280;67425;52.126;20.638;2023-02-11T02:39:52;57719.88;;;-144.78;80.99
55994;BME280;67425;52.126;20.638;2023-02-11T02:42:18;57751.03;;;-144.78;81.93
55994;BME280;67425;52.126;20.638;2023-02-11T02:44:51;57715.72;;;-144.78;81.87
55994;BME280;67425;52.126;20.638;2023-02-11T02:47:17;57742.72;;;-144.78;82.48
55994;BME280;67425;52.126;20.638;2023-02-11T02:49:42;57740.63;;;-144.78;82.03
55994;BME280;67425;52.126;20.638;2023-02-11T02:52:33;57707.41;;;-144.78;81.53
55994;BME280;67425;52.126;20.638;2023-02-11T03:01:07;57721.94;;;-144.78;80.32
55994;BME280;67425;52.126;20.638;2023-02-11T03:06:33;57713.63;;;-144.78;80.53
55994;BME280;67425;52.126;20.638;2023-02-11T03:09:08;57719.88;;;-144.78;80.08
55994;BME280;67425;52.126;20.638;2023-02-11T03:11:37;57717.78;;;-144.78;79.59
55994;BME280;67425;52.126;20.638;2023-02-11T03:14:07;57734.41;;;-144.78;78.95
55994;BME280;67425;52.126;20.638;2023-02-11T03:16:35;57715.72;;;-144.78;79.26
55994;BME280;67425;52.126;20.638;2023-02-11T03:19:12;57703.25;;;-144.78;79.18
55994;BME280;67425;52.126;20.638;2023-02-11T03:21:40;57719.88;;;-144.78;79.07
55994;BME280;67425;52.126;20.638;2023-02-11T03:24:11;57707.41;;;-144.78;78.65
55994;BME280;67425;52.126;20.638;2023-02-11T03:26:50;57726.09;;;-144.78;78.92
55994;BME280;67425;52.126;20.638;2023-02-11T03:29:37;57705.34;;;-144.78;78.77
55994;BME280;67425;52.126;20.638;2023-02-11T03:32:12;57701.19;;;-144.78;78.59
55994;BME280;67425;52.126;20.638;2023-02-11T03:37:29;57694.94;;;-144.78;77.00
55994;BME280;67425;52.126;20.638;2023-02-11T03:39:59;57709.50;;;-144.78;77.51
55994;BME280;67425;52.126;20.638;2023-02-11T03:42:32;57719.88;;;-144.78;77.39
55994;BME280;67425;52.126;20.638;2023-02-11T03:45:08;57717.78;;;-144.78;77.55
55994;BME280;67425;52.126;20.638;2023-02-11T03:47:37;57713.63;;;-144.78;77.39
55994;BME280;67425;52.126;20.638;2023-02-11T03:50:05;57751.03;;;-144.78;77.20
55994;BME280;67425;52.126;20.638;2023-02-11T03:52:33;57711.56;;;-144.78;76.45
55994;BME280;67425;52.126;20.638;2023-02-11T03:55:00;57701.19;;;-144.78;76.24
55994;BME280;67425;52.126;20.638;2023-02-11T03:57:28;57711.56;;;-144.78;76.42
55994;BME280;67425;52.126;20.638;2023-02-11T03:59:56;57697.03;;;-144.78;76.28
55994;BME280;67425;52.126;20.638;2023-02-11T04:02:24;57717.78;;;-144.78;76.21
55994;BME280;67425;52.126;20.638;2023-02-11T04:04:51;57697.03;;;-144.78;76.14
55994;BME280;67425;52.126;20.638;2023-02-11T04:07:16;57711.56;;;-144.78;75.14
55994;BME280;67425;52.126;20.638;2023-02-11T04:09:42;57703.25;;;-144.78;75.43
55994;BME280;67425;52.126;20.638;2023-02-11T04:12:07;57719.88;;;-144.78;75.67
55994;BME280;67425;52.126;20.638;2023-02-11T04:14:33;57730.25;;;-144.78;76.37
55994;BME280;67425;52.126;20.638;2023-02-11T04:16:58;57705.34;;;-144.78;76.18
55994;BME280;67425;52.126;20.638;2023-02-11T04:19:23;57719.88;;;-144.78;75.76
55994;BME280;67425;52.126;20.638;2023-02-11T04:21:49;57721.94;;;-144.78;76.53
55994;BME280;67425;52.126;20.638;2023-02-11T04:24:14;57742.72;;;-144.78;76.77
55994;BME280;67425;52.126;20.638;2023-02-11T04:26:39;57707.41;;;-144.78;76.13
55994;BME280;67425;52.126;20.638;2023-02-11T04:29:05;57719.88;;;-144.78;75.78
55994;BME280;67425;52.126;20.638;2023-02-11T04:31:30;57715.72;;;-144.78;76.04
55994;BME280;67425;52.126;20.638;2023-02-11T04:33:56;57701.19;;;-144.78;76.21
55994;BME280;67425;52.126;20.638;2023-02-11T04:36:21;57748.94;;;-144.78;75.90
55994;BME280;67425;52.126;20.638;2023-02-11T04:38:46;57744.78;;;-144.78;76.04
55994;BME280;67425;52.126;20.638;2023-02-11T04:41:12;57724.03;;;-144.78;76.55
55994;BME280;67425;52.126;20.638;2023-02-11T04:43:37;57730.25;;;-144.78;76.37
55994;BME280;67425;52.126;20.638;2023-02-11T04:46:03;57703.25;;;-144.78;76.29
55994;BME280;67425;52.126;20.638;2023-02-11T04:48:28;57726.09;;;-144.78;76.25
55994;BME280;67425;52.126;20.638;2023-02-11T04:50:53;57736.50;;;-144.78;76.52
55994;BME280;67425;52.126;20.638;2023-02-11T04:53:19;57719.88;;;-144.78;75.79
55994;BME280;67425;52.126;20.638;2023-02-11T04:55:47;57713.63;;;-144.78;76.83
55994;BME280;67425;52.126;20.638;2023-02-11T04:58:13;57719.88;;;-144.78;76.43
55994;BME280;67425;52.126;20.638;2023-02-11T05:00:38;57713.63;;;-144.78;77.42
55994;BME280;67425;52.126;20.638;2023-02-11T05:03:04;57726.09;;;-144.78;76.78
55994;BME280;67425;52.126;20.638;2023-02-11T05:05:29;57717.78;;;-144.78;76.09
55994;BME280;67425;52.126;20.638;2023-02-11T05:07:54;57755.19;;;-144.78;76.79
55994;BME280;67425;52.126;20.638;2023-02-11T05:10:20;57726.09;;;-144.78;76.30
55994;BME280;67425;52.126;20.638;2023-02-11T05:12:47;57730.25;;;-144.78;76.63
55994;BME280;67425;52.126;20.638;2023-02-11T05:15:12;57740.63;;;-144.78;76.57
55994;BME280;67425;52.126;20.638;2023-02-11T05:17:38;57769.72;;;-144.78;76.26
55994;BME280;67425;52.126;20.638;2023-02-11T05:20:03;57719.88;;;-144.78;76.11
55994;BME280;67425;52.126;20.638;2023-02-11T05:22:29;57721.94;;;-144.78;75.99
55994;BME280;67425;52.126;20.638;2023-02-11T05:24:54;57734.41;;;-144.78;76.08
55994;BME280;67425;52.126;20.638;2023-02-11T05:27:19;57724.03;;;-144.78;75.39
55994;BME280;67425;52.126;20.638;2023-02-11T05:29:45;57726.09;;;-144.78;76.01
55994;BME280;67425;52.126;20.638;2023-02-11T05:32:10;57707.41;;;-144.78;75.67
55994;BME280;67425;52.126;20.638;2023-02-11T05:34:36;57707.41;;;-144.78;75.47
55994;BME280;67425;52.126;20.638;2023-02-11T05:37:01;57713.63;;;-144.78;75.10
55994;BME280;67425;52.126;20.638;2023-02-11T05:39:27;57713.63;;;-144.78;75.56
55994;BME280;67425;52.126;20.638;2023-02-11T05:41:52;57709.50;;;-144.78;75.27
55994;BME280;67425;52.126;20.638;2023-02-11T05:44:18;57730.25;;;-144.78;75.93
55994;BME280;67425;52.126;20.638;2023-02-11T05:46:43;57705.34;;;-144.78;76.00
55994;BME280;67425;52.126;20.638;2023-02-11T05:49:08;57719.88;;;-144.78;76.11
55994;BME280;67425;52.126;20.638;2023-02-11T05:51:34;57719.88;;;-144.78;75.67
55994;BME280;67425;52.126;20.638;2023-02-11T05:53:59;57701.19;;;-144.78;75.69
55994;BME280;67425;52.126;20.638;2023-02-11T05:56:24;57719.88;;;-144.78;75.33
55994;BME280;67425;52.126;20.638;2023-02-11T05:58:50;57709.50;;;-144.78;75.47
55994;BME280;67425;52.126;20.638;2023-02-11T06:01:15;57692.88;;;-144.78;75.37
55994;BME280;67425;52.126;20.638;2023-02-11T06:03:40;57711.56;;;-144.78;75.12
55994;BME280;67425;52.126;20.638;2023-02-11T06:06:10;57728.19;;;-144.78;76.08
55994;BME280;67425;52.126;20.638;2023-02-11T06:08:36;57707.41;;;-144.78;75.13
55994;BME280;67425;52.126;20.638;2023-02-11T06:11:01;57736.50;;;-144.78;75.47
55994;BME280;67425;52.126;20.638;2023-02-11T06:13:26;57717.78;;;-144.78;74.88
55994;BME280;67425;52.126;20.638;2023-02-11T06:15:58;57707.41;;;-144.78;75.19
55994;BME280;67425;52.126;20.638;2023-02-11T06:18:24;57705.34;;;-144.78;75.52
55994;BME280;67425;52.126;20.638;2023-02-11T06:20:50;57713.63;;;-144.78;75.20
55994;BME280;67425;52.126;20.638;2023-02-11T06:23:15;57721.94;;;-144.78;75.51
55994;BME280;67425;52.126;20.638;2023-02-11T06:25:41;57711.56;;;-144.78;75.34
55994;BME280;67425;52.126;20.638;2023-02-11T06:28:06;57721.94;;;-144.78;74.87
55994;BME280;67425;52.126;20.638;2023-02-11T06:30:32;57730.25;;;-144.78;74.58
55994;BME280;67425;52.126;20.638;2023-02-11T06:32:58;57721.94;;;-144.78;74.72
55994;BME280;67425;52.126;20.638;2023-02-11T06:35:23;57688.72;;;-144.78;74.91
55994;BME280;67425;52.126;20.638;2023-02-11T06:37:48;57709.50;;;-144.78;74.18
55994;BME280;67425;52.126;20.638;2023-02-11T06:40:14;57726.09;;;-144.78;74.81
55994;BME280;67425;52.126;20.638;2023-02-11T06:42:40;57701.19;;;-144.78;75.21
55994;BME280;67425;52.126;20.638;2023-02-11T06:45:07;57707.41;;;-144.78;74.75
55994;BME280;67425;52.126;20.638;2023-02-11T06:47:37;57705.34;;;-144.78;74.34
55994;BME280;67425;52.126;20.638;2023-02-11T06:50:03;57711.56;;;-144.78;73.76
55994;BME280;67425;52.126;20.638;2023-02-11T06:52:29;57719.88;;;-144.78;74.19
55994;BME280;67425;52.126;20.638;2023-02-11T06:54:55;57711.56;;;-144.78;74.18
55994;BME280;67425;52.126;20.638;2023-02-11T06:57:20;57692.88;;;-144.78;74.15
55994;BME280;67425;52.126;20.638;2023-02-11T06:59:45;57680.41;;;-144.78;74.07
55994;BME280;67425;52.126;20.638;2023-02-11T07:02:11;57703.25;;;-144.78;73.90
55994;BME280;67425;52.126;20.638;2023-02-11T07:04:36;57715.72;;;-144.78;74.48
55994;BME280;67425;52.126;20.638;2023-02-11T07:07:02;57694.94;;;-144.78;74.35
55994;BME280;67425;52.126;20.638;2023-02-11T07:09:27;57684.56;;;-144.78;73.85
55994;BME280;67425;52.126;20.638;2023-02-11T07:11:52;57709.50;;;-144.78;74.79
55994;BME280;67425;52.126;20.638;2023-02-11T07:14:18;57707.41;;;-144.78;73.89
55994;BME280;67425;52.126;20.638;2023-02-11T07:16:43;57701.19;;;-144.78;74.26
55994;BME280;67425;52.126;20.638;2023-02-11T07:19:09;57680.41;;;-144.78;74.38
55994;BME280;67425;52.126;20.638;2023-02-11T07:21:34;57703.25;;;-144.78;74.99
55994;BME280;67425;52.126;20.638;2023-02-11T07:24:00;57744.78;;;-144.78;75.40
55994;BME280;67425;52.126;20.638;2023-02-11T07:26:26;57709.50;;;-144.78;74.95
55994;BME280;67425;52.126;20.638;2023-02-11T07:28:52;57711.56;;;-144.78;75.19
55994;BME280;67425;52.126;20.638;2023-02-11T07:31:20;57709.50;;;-144.78;75.31
55994;BME280;67425;52.126;20.638;2023-02-11T07:33:46;57697.03;;;-144.78;75.02
55994;BME280;67425;52.126;20.638;2023-02-11T07:36:13;57686.63;;;-144.78;75.13
55994;BME280;67425;52.126;20.638;2023-02-11T07:38:39;57699.09;;;-144.78;75.13
55994;BME280;67425;52.126;20.638;2023-02-11T07:41:07;57707.41;;;-144.78;75.78
55994;BME280;67425;52.126;20.638;2023-02-11T07:43:34;57688.72;;;-144.78;76.01
55994;BME280;67425;52.126;20.638;2023-02-11T07:46:12;57694.94;;;-144.78;75.25
55994;BME280;67425;52.126;20.638;2023-02-11T07:48:38;57692.88;;;-144.78;75.72
55994;BME280;67425;52.126;20.638;2023-02-11T07:51:08;57688.72;;;-144.78;76.82
55994;BME280;67425;52.126;20.638;2023-02-11T07:53:33;57692.88;;;-144.78;76.83
55994;BME280;67425;52.126;20.638;2023-02-11T07:55:59;57715.72;;;-144.78;77.03
55994;BME280;67425;52.126;20.638;2023-02-11T07:58:24;57701.19;;;-144.78;77.82
55994;BME280;67425;52.126;20.638;2023-02-11T08:00:49;57688.72;;;-144.78;78.42
55994;BME280;67425;52.126;20.638;2023-02-11T08:03:15;57690.78;;;-144.78;78.82
55994;BME280;67425;52.126;20.638;2023-02-11T08:05:40;57684.56;;;-144.78;79.26
55994;BME280;67425;52.126;20.638;2023-02-11T08:08:06;57680.41;;;-144.78;79.68
55994;BME280;67425;52.126;20.638;2023-02-11T08:10:31;57701.19;;;-144.78;81.83
55994;BME280;67425;52.126;20.638;2023-02-11T08:12:57;57688.72;;;-144.78;82.10
55994;BME280;67425;52.126;20.638;2023-02-11T08:15:22;57701.19;;;-144.78;83.90
55994;BME280;67425;52.126;20.638;2023-02-11T08:17:47;57682.50;;;-144.78;84.15
55994;BME280;67425;52.126;20.638;2023-02-11T08:20:13;57732.34;;;-144.78;86.36
55994;BME280;67425;52.126;20.638;2023-02-11T08:22:38;57717.78;;;-144.78;86.44
55994;BME280;67425;52.126;20.638;2023-02-11T08:25:04;57699.09;;;-144.78;86.87
55994;BME280;67425;52.126;20.638;2023-02-11T08:27:29;57709.50;;;-144.78;86.95
55994;BME280;67425;52.126;20.638;2023-02-11T08:29:55;57709.50;;;-144.78;87.82
55994;BME280;67425;52.126;20.638;2023-02-11T08:32:21;57692.88;;;-144.78;87.52
55994;BME280;67425;52.126;20.638;2023-02-11T08:34:53;57707.41;;;-144.78;87.62
55994;BME280;67425;52.126;20.638;2023-02-11T08:37:19;57701.19;;;-144.78;89.30
55994;BME280;67425;52.126;20.638;2023-02-11T08:39:44;57711.56;;;-144.78;88.80
55994;BME280;67425;52.126;20.638;2023-02-11T08:42:12;57717.78;;;-144.78;88.67
55994;BME280;67425;52.126;20.638;2023-02-11T08:44:38;57705.34;;;-144.78;89.02
55994;BME280;67425;52.126;20.638;2023-02-11T08:47:03;57717.78;;;-144.78;88.33
55994;BME280;67425;52.126;20.638;2023-02-11T08:49:29;57711.56;;;-144.78;88.91
55994;BME280;67425;52.126;20.638;2023-02-11T08:51:55;57697.03;;;-144.78;88.60
55994;BME280;67425;52.126;20.638;2023-02-11T08:54:23;57719.88;;;-144.78;87.88
55994;BME280;67425;52.126;20.638;2023-02-11T08:56:50;57724.03;;;-144.78;94.14
55994;BME280;67425;52.126;20.638;2023-02-11T08:59:15;57724.03;;;-144.78;93.45
55994;BME280;67425;52.126;20.638;2023-02-11T09:01:42;57730.25;;;-144.78;92.73
55994;BME280;67425;52.126;20.638;2023-02-11T09:04:08;57724.03;;;-144.78;93.31
55994;BME280;67425;52.126;20.638;2023-02-11T09:06:34;57709.50;;;-144.78;93.67
55994;BME280;67425;52.126;20.638;2023-02-11T09:09:00;57721.94;;;-144.78;93.73
55994;BME280;67425;52.126;20.638;2023-02-11T09:11:28;57705.34;;;-144.78;92.40
55994;BME280;67425;52.126;20.638;2023-02-11T09:13:55;57703.25;;;-144.78;92.47
55994;BME280;67425;52.126;20.638;2023-02-11T09:16:27;57701.19;;;-144.78;92.80
55994;BME280;67425;52.126;20.638;2023-02-11T09:18:56;57717.78;;;-144.78;91.41
55994;BME280;67425;52.126;20.638;2023-02-11T09:21:21;57709.50;;;-144.78;90.93
55994;BME280;67425;52.126;20.638;2023-02-11T09:23:47;57703.25;;;-144.78;91.20
55994;BME280;67425;52.126;20.638;2023-02-11T09:26:24;57709.50;;;-144.78;90.38
55994;BME280;67425;52.126;20.638;2023-02-11T09:28:50;57707.41;;;-144.78;91.12
55994;BME280;67425;52.126;20.638;2023-02-11T09:31:21;57680.41;;;-144.78;90.24
55994;BME280;67425;52.126;20.638;2023-02-11T09:33:49;57726.09;;;-144.78;89.12
55994;BME280;67425;52.126;20.638;2023-02-11T09:36:17;57721.94;;;-144.78;94.92
55994;BME280;67425;52.126;20.638;2023-02-11T09:38:43;57738.56;;;-144.78;98.37
55994;BME280;67425;52.126;20.638;2023-02-11T09:43:53;57761.41;;;-144.78;99.62
55994;BME280;67425;52.126;20.638;2023-02-11T09:46:20;57753.09;;;-144.78;100.00
55994;BME280;67425;52.126;20.638;2023-02-11T09:48:48;57724.03;;;-144.78;99.44
55994;BME280;67425;52.126;20.638;2023-02-11T09:54:02;57692.88;;;-144.78;91.21
55994;BME280;67425;52.126;20.638;2023-02-11T09:56:29;57699.09;;;-144.78;90.25
55994;BME280;67425;52.126;20.638;2023-02-11T09:58:55;57717.78;;;-144.78;96.52
55994;BME280;67425;52.126;20.638;2023-02-11T10:01:40;57717.78;;;-144.78;95.45
55994;BME280;67425;52.126;20.638;2023-02-11T10:09:59;57740.63;;;-144.78;99.94
55994;BME280;67425;52.126;20.638;2023-02-11T10:22:57;57705.34;;;-144.78;100.00
55994;BME280;67425;52.126;20.638;2023-02-11T10:26:07;57699.09;;;-144.78;98.78
55994;BME280;67425;52.126;20.638;2023-02-11T10:28:17;57734.41;;;-144.78;99.27
55994;BME280;67425;52.126;20.638;2023-02-11T10:30:59;57713.63;;;-144.78;99.69
55994;BME280;67425;52.126;20.638;2023-02-11T10:33:43;57740.63;;;-144.78;100.00
55994;BME280;67425;52.126;20.638;2023-02-11T10:36:11;57742.72;;;-144.78;100.00
55994;BME280;67425;52.126;20.638;2023-02-11T10:38:37;57734.41;;;-144.78;100.00
55994;BME280;67425;52.126;20.638;2023-02-11T10:41:04;57734.41;;;-144.78;100.00
55994;BME280;67425;52.126;20.638;2023-02-11T10:43:31;57736.50;;;-144.78;100.00
55994;BME280;67425;52.126;20.638;2023-02-11T10:45:58;57730.25;;;-144.78;100.00
55994;BME280;67425;52.126;20.638;2023-02-11T10:48:56;57746.88;;;-144.78;100.00
55994;BME280;67425;52.126;20.638;2023-02-11T10:51:26;57697.03;;;-144.78;100.00
55994;BME280;67425;52.126;20.638;2023-02-11T10:56:39;57707.41;;;-144.78;100.00
55994;BME280;67425;52.126;20.638;2023-02-11T10:59:14;57717.78;;;-144.78;100.00
55994;BME280;67425;52.126;20.638;2023-02-11T11:01:44;57699.09;;;-144.78;100.00
55994;BME280;67425;52.126;20.638;2023-02-11T11:06:54;57717.78;;;-144.78;100.00
55994;BME280;67425;52.126;20.638;2023-02-11T11:09:27;57724.03;;;-144.78;100.00
55994;BME280;67425;52.126;20.638;2023-02-11T11:11:54;57724.03;;;-144.78;100.00
55994;BME280;67425;52.126;20.638;2023-02-11T11:14:20;57697.03;;;-144.78;100.00
55994;BME280;67425;52.126;20.638;2023-02-11T11:16:53;57694.94;;;-144.78;100.00
55994;BME280;67425;52.126;20.638;2023-02-11T11:19:22;57719.88;;;-144.78;100.00
55994;BME280;67425;52.126;20.638;2023-02-11T11:21:52;57682.50;;;-144.78;100.00
55994;BME280;67425;52.126;20.638;2023-02-11T11:26:58;57744.78;;;-144.78;100.00
55994;BME280;67425;52.126;20.638;2023-02-11T11:29:38;57711.56;;;-144.78;100.00
55994;BME280;67425;52.126;20.638;2023-02-11T11:32:13;57717.78;;;-144.78;100.00
55994;BME280;67425;52.126;20.638;2023-02-11T11:34:41;57701.19;;;-144.78;100.00
55994;BME280;67425;52.126;20.638;2023-02-11T11:37:12;57701.19;;;-144.78;100.00
55994;BME280;67425;52.126;20.638;2023-02-11T11:39:39;57719.88;;;-144.78;100.00
55994;BME280;67425;52.126;20.638;2023-02-11T11:42:26;57697.03;;;-144.78;100.00
55994;BME280;67425;52.126;20.638;2023-02-11T11:47:47;57699.09;;;-144.78;100.00
55994;BME280;67425;52.126;20.638;2023-02-11T11:50:46;57701.19;;;-144.78;100.00
55994;BME280;67425;52.126;20.638;2023-02-11T11:53:23;57686.63;;;-144.78;100.00
55994;BME280;67425;52.126;20.638;2023-02-11T11:56:31;57697.03;;;-144.78;100.00
55994;BME280;67425;52.126;20.638;2023-02-11T11:59:04;57699.09;;;-144.78;100.00
55994;BME280;67425;52.126;20.638;2023-02-11T12:23:13;57684.56;;;-144.78;100.00
55994;BME280;67425;52.126;20.638;2023-02-11T12:25:49;57697.03;;;-144.78;100.00
55994;BME280;67425;52.126;20.638;2023-02-11T12:28:43;57692.88;;;-144.78;100.00
55994;BME280;67425;52.126;20.638;2023-02-11T12:37:20;57688.72;;;-144.78;100.00
55994;BME280;67425;52.126;20.638;2023-02-11T12:56:23;57688.72;;;-144.78;100.00
55994;BME280;67425;52.126;20.638;2023-02-11T12:58:54;57672.09;;;-144.78;100.00
55994;BME280;67425;52.126;20.638;2023-02-11T13:01:25;57672.09;;;-144.78;100.00
55994;BME280;67425;52.126;20.638;2023-02-11T13:04:07;57676.25;;;-144.78;100.00
55994;BME280;67425;52.126;20.638;2023-02-11T13:06:41;57667.94;;;-144.78;100.00
55994;BME280;67425;52.126;20.638;2023-02-11T13:09:22;57659.63;;;-144.78;100.00
55994;BME280;67425;52.126;20.638;2023-02-11T13:11:53;57653.41;;;-144.78;100.00
55994;BME280;67425;52.126;20.638;2023-02-11T13:14:29;57651.34;;;-144.78;100.00
55994;BME280;67425;52.126;20.638;2023-02-11T13:16:57;57665.88;;;-144.78;100.00
55994;BME280;67425;52.126;20.638;2023-02-11T13:19:43;57665.88;;;-144.78;100.00
55994;BME280;67425;52.126;20.638;2023-02-11T13:22:57;57674.19;;;-144.78;100.00
55994;BME280;67425;52.126;20.638;2023-02-11T13:25:35;57643.03;;;-144.78;100.00
55994;BME280;67425;52.126;20.638;2023-02-11T13:30:46;57655.50;;;-144.78;100.00
55994;BME280;67425;52.126;20.638;2023-02-11T13:38:29;57688.72;;;-144.78;100.00
55994;BME280;67425;52.126;20.638;2023-02-11T13:41:02;57667.94;;;-144.78;100.00
55994;BME280;67425;52.126;20.638;2023-02-11T13:43:31;57655.50;;;-144.78;100.00
55994;BME280;67425;52.126;20.638;2023-02-11T13:46:08;57665.88;;;-144.78;100.00
55994;BME280;67425;52.126;20.638;2023-02-11T13:48:35;57670.03;;;-144.78;100.00
55994;BME280;67425;52.126;20.638;2023-02-11T13:51:10;57663.78;;;-144.78;100.00
55994;BME280;67425;52.126;20.638;2023-02-11T13:53:51;57670.03;;;-144.78;100.00
55994;BME280;67425;52.126;20.638;2023-02-11T13:58:57;57667.94;;;-144.78;100.00
55994;BME280;67425;52.126;20.638;2023-02-11T14:04:33;57638.88;;;-144.78;100.00
55994;BME280;67425;52.126;20.638;2023-02-11T14:15:45;57649.25;;;-144.78;100.00
55994;BME280;67425;52.126;20.638;2023-02-11T14:18:37;57665.88;;;-144.78;100.00
55994;BME280;67425;52.126;20.638;2023-02-11T14:23:37;57674.19;;;-144.78;100.00
55994;BME280;67425;52.126;20.638;2023-02-11T14:29:08;57663.78;;;-144.78;100.00
55994;BME280;67425;52.126;20.638;2023-02-11T14:31:46;57665.88;;;-144.78;100.00
55994;BME280;67425;52.126;20.638;2023-02-11T14:42:01;57653.41;;;-144.78;100.00
55994;BME280;67425;52.126;20.638;2023-02-11T14:44:29;57636.78;;;-144.78;100.00
55994;BME280;67425;52.126;20.638;2023-02-11T14:46:55;57667.94;;;-144.78;100.00
55994;BME280;67425;52.126;20.638;2023-02-11T14:49:26;57647.19;;;-144.78;100.00
55994;BME280;67425;52.126;20.638;2023-02-11T14:52:05;57676.25;;;-144.78;100.00
55994;BME280;67425;52.126;20.638;2023-02-11T14:54:32;57657.56;;;-144.78;100.00
55994;BME280;67425;52.126;20.638;2023-02-11T14:57:15;57667.94;;;-144.78;100.00
55994;BME280;67425;52.126;20.638;2023-02-11T15:02:39;57655.50;;;-144.78;100.00
55994;BME280;67425;52.126;20.638;2023-02-11T15:05:14;57653.41;;;-144.78;100.00
55994;BME280;67425;52.126;20.638;2023-02-11T15:07:52;57667.94;;;-144.78;100.00
55994;BME280;67425;52.126;20.638;2023-02-11T15:10:41;57678.34;;;-144.78;100.00
55994;BME280;67425;52.126;20.638;2023-02-11T15:13:08;57684.56;;;-144.78;100.00